Spar Corvus — LAKK7 — position and weather

sailwx.info

Track history (hours):
 
Tides and Currents Weather Stations Pressure Air Temp Water Temp Dewpoint Dewpoint Depression Visibility Wind Speed Wind Dir Waves Ship Positions

Spar Corvus

Last reported at 2018-Jul-07 03:09 UTC. Time now 2018-Jul-17 11:40 UTC.
Position N 01°25' E 103°13'.
Warning: this ship's position is 10 days out of date.

Length 190 m; draft 10 m.

Type: Ship. MMSI: 259093000.

Date/timePositionNaut miles runAvg speedWind from/ knotsBaromVisibWave heightAir tempDewpointWater temp
2018-Jul-07 03:09N 01°25' E 103°13'512.8
2018-Jul-07 02:48N 01°22' E 103°17'412.8
2018-Jul-07 02:29N 01°20' E 103°20'712.6
2018-Jul-07 01:55N 01°15' E 103°25'512.2
2018-Jul-07 01:30N 01°13' E 103°30'611.2
2018-Jul-07 01:00N 01°12' E 103°35'511.3
2018-Jul-07 00:30N 01°10' E 103°41'5 9.4
2018-Jul-07 00:00N 01°09' E 103°45'4 8.9
2018-Jul-06 23:30N 01°11' E 103°49'4 7.5
2018-Jul-06 23:00N 01°12' E 103°53'4 8.3
2018-Jul-06 22:31N 01°14' E 103°56'5 9.0
2018-Jul-06 21:58N 01°16' E 104°01'2 3.3
2018-Jul-06 21:30N 01°18' E 104°01'0 0.1
2018-Jul-06 20:44N 01°18' E 104°01'0 0.0
2018-Jul-06 20:26N 01°18' E 104°01'0 0.2
2018-Jul-06 19:41N 01°18' E 104°01'0 0.0
2018-Jul-06 19:11N 01°18' E 104°01'0 0.0
2018-Jul-06 18:56N 01°18' E 104°01'0 0.0
2018-Jul-06 18:17N 01°18' E 104°01'0 0.0
2018-Jul-06 17:50N 01°18' E 104°01'0 0.0
2018-Jul-06 17:29N 01°18' E 104°01'0 0.0
2018-Jul-06 16:56N 01°18' E 104°01'0 0.0
2018-Jul-06 16:26N 01°18' E 104°01'0 0.0
2018-Jul-06 15:44N 01°18' E 104°01'0 0.0
2018-Jul-06 15:29N 01°18' E 104°01'0 0.0
2018-Jul-06 14:38N 01°18' E 104°01'0 0.0
2018-Jul-06 14:29N 01°18' E 104°01'0 0.1
2018-Jul-06 14:00N 01°18' E 104°01'0 0.0
2018-Jul-06 13:23N 01°18' E 104°01'0 0.1
2018-Jul-06 12:56N 01°18' E 104°01'0 0.1
2018-Jul-06 12:29N 01°18' E 104°01'1 2.1
2018-Jul-06 12:00N 01°17' E 104°00'1 1.8
2018-Jul-06 11:30N 01°16' E 103°60'3 4.9
2018-Jul-06 10:59N 01°16' E 104°02'4 8.2
2018-Jul-06 10:30N 01°17' E 104°06'5 9.3
2018-Jul-06 10:00N 01°17' E 104°11'5 9.4
2018-Jul-06 09:30N 01°18' E 104°15'510.4
2018-Jul-06 08:59N 01°19' E 104°20'610.0
2018-Jul-06 08:26N 01°23' E 104°25'  
2018-Jun-30 13:30N 22°26' E 119°58'612.0
2018-Jun-30 13:00N 22°31' E 120°03'611.4
2018-Jun-30 12:30N 22°35' E 120°07'5 9.5
2018-Jun-30 12:00N 22°38' E 120°11'4 7.3
2018-Jun-30 11:30N 22°37' E 120°15'2 4.7
2018-Jun-30 11:00N 22°37' E 120°17'0 0.2
2018-Jun-30 10:15N 22°37' E 120°17'0 0.0
2018-Jun-30 09:51N 22°37' E 120°17'0 0.0
2018-Jun-30 09:27N 22°37' E 120°17'0 0.0
2018-Jun-30 08:51N 22°37' E 120°17'0 0.0
2018-Jun-30 08:27N 22°37' E 120°17'0 0.0
2018-Jun-30 07:57N 22°37' E 120°17'0 0.0
2018-Jun-30 07:27N 22°37' E 120°17'0 0.0
2018-Jun-30 06:51N 22°37' E 120°17'0 0.1
2018-Jun-30 06:27N 22°37' E 120°17'0 0.1
2018-Jun-30 05:51N 22°37' E 120°17'0 0.0
2018-Jun-30 05:21N 22°37' E 120°17'0 0.0
2018-Jun-30 04:57N 22°37' E 120°17'0 0.1
2018-Jun-30 04:27N 22°37' E 120°17'0 0.1
2018-Jun-30 03:51N 22°37' E 120°17'0 0.0
2018-Jun-30 03:27N 22°37' E 120°17'0 0.1
2018-Jun-30 02:57N 22°37' E 120°17'0 0.0
2018-Jun-30 02:27N 22°37' E 120°17'0 0.1
2018-Jun-30 01:57N 22°37' E 120°17'0 0.0
2018-Jun-30 01:21N 22°37' E 120°17'0 0.0
2018-Jun-30 00:57N 22°37' E 120°17'0 0.1
2018-Jun-30 00:27N 22°37' E 120°17'0 0.1
2018-Jun-29 23:57N 22°37' E 120°17'0 0.0
2018-Jun-29 17:09N 22°37' E 120°17'0 0.0
2018-Jun-29 11:57N 22°37' E 120°17'0 0.1
2018-Jun-29 11:21N 22°37' E 120°17'0 0.0
2018-Jun-29 10:45N 22°37' E 120°17'0 0.2
2018-Jun-29 10:27N 22°37' E 120°17'0 0.0
2018-Jun-29 09:57N 22°37' E 120°17'0 0.0
2018-Jun-29 09:15N 22°37' E 120°17'0 0.0
2018-Jun-29 08:57N 22°37' E 120°17'0 0.0
2018-Jun-29 08:27N 22°37' E 120°17'0 0.0
2018-Jun-29 07:57N 22°37' E 120°17'0 0.0
2018-Jun-29 07:27N 22°37' E 120°17'0 0.0
2018-Jun-29 06:57N 22°37' E 120°17'0 0.1
2018-Jun-29 06:21N 22°37' E 120°17'0 0.1
2018-Jun-29 05:57N 22°37' E 120°17'0 0.0
2018-Jun-29 05:27N 22°37' E 120°17'0 0.1
2018-Jun-29 04:57N 22°37' E 120°17'0 0.1
2018-Jun-29 04:21N 22°37' E 120°17'0 0.0
2018-Jun-29 03:57N 22°37' E 120°17'0 0.1
2018-Jun-29 03:27N 22°37' E 120°17'0 0.1
2018-Jun-29 02:57N 22°37' E 120°17'0 0.1
2018-Jun-29 02:27N 22°37' E 120°17'0 0.0
2018-Jun-29 01:57N 22°37' E 120°17'0 0.1
2018-Jun-29 01:27N 22°37' E 120°17'0 0.0
2018-Jun-29 00:57N 22°37' E 120°17'0 0.1
2018-Jun-29 00:27N 22°37' E 120°17'0 0.0
2018-Jun-28 14:27N 22°37' E 120°17'0 0.0
2018-Jun-28 13:51N 22°37' E 120°17'0 0.0
2018-Jun-28 13:27N 22°37' E 120°17'0 0.0
2018-Jun-28 12:57N 22°37' E 120°17'0 0.0
2018-Jun-28 12:27N 22°37' E 120°17'0 0.1
2018-Jun-28 11:45N 22°37' E 120°17'0 0.2
2018-Jun-28 11:27N 22°37' E 120°17'0 0.0
2018-Jun-28 10:57N 22°37' E 120°17'0 0.0
2018-Jun-28 10:27N 22°37' E 120°17'0 0.0
2018-Jun-28 09:57N 22°37' E 120°17'0 0.0
2018-Jun-28 09:27N 22°37' E 120°17'0 0.0
2018-Jun-28 08:57N 22°37' E 120°17'0 0.1
2018-Jun-28 08:27N 22°37' E 120°17'0 0.1
2018-Jun-28 07:57N 22°37' E 120°17'0 0.0
2018-Jun-28 07:27N 22°37' E 120°17'0 0.0
2018-Jun-28 06:57N 22°37' E 120°17'0 0.0
2018-Jun-28 06:27N 22°37' E 120°17'0 0.0
2018-Jun-28 05:57N 22°37' E 120°17'0 0.0
2018-Jun-28 05:27N 22°37' E 120°17'0 0.0
2018-Jun-28 04:45N 22°37' E 120°17'0 0.0
2018-Jun-28 04:27N 22°37' E 120°17'0 0.0
2018-Jun-28 03:45N 22°37' E 120°17'0 0.0
2018-Jun-28 03:21N 22°37' E 120°17'0 0.0
2018-Jun-28 02:57N 22°37' E 120°17'0 0.0
2018-Jun-28 02:27N 22°37' E 120°17'0 0.0
2018-Jun-28 01:57N 22°37' E 120°17'0 0.1
2018-Jun-28 01:27N 22°37' E 120°17'0 0.0
2018-Jun-28 01:00N 22°37' E 120°17'1 1.9
2018-Jun-28 00:30N 22°36' E 120°17'3 5.1
2018-Jun-28 00:00N 22°34' E 120°19'1 1.4
2018-Jun-27 23:29N 22°34' E 120°20'0 0.0
2018-Jun-27 12:16N 22°34' E 120°20'0 0.0
2018-Jun-27 11:58N 22°34' E 120°20'0 0.0
2018-Jun-27 09:58N 22°34' E 120°20'0 0.0
2018-Jun-27 09:22N 22°34' E 120°20'0 0.0
2018-Jun-27 08:52N 22°34' E 120°20'0 0.0
2018-Jun-27 08:28N 22°34' E 120°20'0 0.0
2018-Jun-27 07:52N 22°34' E 120°20'0 0.0
2018-Jun-27 07:22N 22°34' E 120°20'0 0.0
2018-Jun-27 06:10N 22°34' E 120°20'0 0.0
2018-Jun-27 05:52N 22°34' E 120°20'0 0.0
2018-Jun-27 05:28N 22°34' E 120°20'0 0.0
2018-Jun-27 04:52N 22°34' E 120°20'0 0.0
2018-Jun-27 04:28N 22°34' E 120°20'0 0.0
2018-Jun-27 03:58N 22°34' E 120°20'0 0.0
2018-Jun-27 03:28N 22°34' E 120°20'  
Track history (hours):
 
Tides and Currents Weather Stations Pressure Air Temp Water Temp Dewpoint Dewpoint Depression Visibility Wind Speed Wind Dir Waves Ship Positions

Spar Corvus

Last reported at 2018-Jul-07 03:09 UTC. Time now 2018-Jul-17 11:40 UTC.
Position N 01°25' E 103°13'.
Warning: this ship's position is 10 days out of date.

Length 190 m; draft 10 m.

Type: Ship. MMSI: 259093000.

Date/timePositionNaut miles runAvg speedWind from/ knotsBaromVisibWave heightAir tempDewpointWater temp
2018-Jul-07 03:09N 01°25' E 103°13'512.8
2018-Jul-07 02:48N 01°22' E 103°17'412.8
2018-Jul-07 02:29N 01°20' E 103°20'712.6
2018-Jul-07 01:55N 01°15' E 103°25'512.2
2018-Jul-07 01:30N 01°13' E 103°30'611.2
2018-Jul-07 01:00N 01°12' E 103°35'511.3
2018-Jul-07 00:30N 01°10' E 103°41'5 9.4
2018-Jul-07 00:00N 01°09' E 103°45'4 8.9
2018-Jul-06 23:30N 01°11' E 103°49'4 7.5
2018-Jul-06 23:00N 01°12' E 103°53'4 8.3
2018-Jul-06 22:31N 01°14' E 103°56'5 9.0
2018-Jul-06 21:58N 01°16' E 104°01'2 3.3
2018-Jul-06 21:30N 01°18' E 104°01'0 0.1
2018-Jul-06 20:44N 01°18' E 104°01'0 0.0
2018-Jul-06 20:26N 01°18' E 104°01'0 0.2
2018-Jul-06 19:41N 01°18' E 104°01'0 0.0
2018-Jul-06 19:11N 01°18' E 104°01'0 0.0
2018-Jul-06 18:56N 01°18' E 104°01'0 0.0
2018-Jul-06 18:17N 01°18' E 104°01'0 0.0
2018-Jul-06 17:50N 01°18' E 104°01'0 0.0
2018-Jul-06 17:29N 01°18' E 104°01'0 0.0
2018-Jul-06 16:56N 01°18' E 104°01'0 0.0
2018-Jul-06 16:26N 01°18' E 104°01'0 0.0
2018-Jul-06 15:44N 01°18' E 104°01'0 0.0
2018-Jul-06 15:29N 01°18' E 104°01'0 0.0
2018-Jul-06 14:38N 01°18' E 104°01'0 0.0
2018-Jul-06 14:29N 01°18' E 104°01'0 0.1
2018-Jul-06 14:00N 01°18' E 104°01'0 0.0
2018-Jul-06 13:23N 01°18' E 104°01'0 0.1
2018-Jul-06 12:56N 01°18' E 104°01'0 0.1
2018-Jul-06 12:29N 01°18' E 104°01'1 2.1
2018-Jul-06 12:00N 01°17' E 104°00'1 1.8
2018-Jul-06 11:30N 01°16' E 103°60'3 4.9
2018-Jul-06 10:59N 01°16' E 104°02'4 8.2
2018-Jul-06 10:30N 01°17' E 104°06'5 9.3
2018-Jul-06 10:00N 01°17' E 104°11'5 9.4
2018-Jul-06 09:30N 01°18' E 104°15'510.4
2018-Jul-06 08:59N 01°19' E 104°20'610.0
2018-Jul-06 08:26N 01°23' E 104°25'  
2018-Jun-30 13:30N 22°26' E 119°58'612.0
2018-Jun-30 13:00N 22°31' E 120°03'611.4
2018-Jun-30 12:30N 22°35' E 120°07'5 9.5
2018-Jun-30 12:00N 22°38' E 120°11'4 7.3
2018-Jun-30 11:30N 22°37' E 120°15'2 4.7
2018-Jun-30 11:00N 22°37' E 120°17'0 0.2
2018-Jun-30 10:15N 22°37' E 120°17'0 0.0
2018-Jun-30 09:51N 22°37' E 120°17'0 0.0
2018-Jun-30 09:27N 22°37' E 120°17'0 0.0
2018-Jun-30 08:51N 22°37' E 120°17'0 0.0
2018-Jun-30 08:27N 22°37' E 120°17'0 0.0
2018-Jun-30 07:57N 22°37' E 120°17'0 0.0
2018-Jun-30 07:27N 22°37' E 120°17'0 0.0
2018-Jun-30 06:51N 22°37' E 120°17'0 0.1
2018-Jun-30 06:27N 22°37' E 120°17'0 0.1
2018-Jun-30 05:51N 22°37' E 120°17'0 0.0
2018-Jun-30 05:21N 22°37' E 120°17'0 0.0
2018-Jun-30 04:57N 22°37' E 120°17'0 0.1
2018-Jun-30 04:27N 22°37' E 120°17'0 0.1
2018-Jun-30 03:51N 22°37' E 120°17'0 0.0
2018-Jun-30 03:27N 22°37' E 120°17'0 0.1
2018-Jun-30 02:57N 22°37' E 120°17'0 0.0
2018-Jun-30 02:27N 22°37' E 120°17'0 0.1
2018-Jun-30 01:57N 22°37' E 120°17'0 0.0
2018-Jun-30 01:21N 22°37' E 120°17'0 0.0
2018-Jun-30 00:57N 22°37' E 120°17'0 0.1
2018-Jun-30 00:27N 22°37' E 120°17'0 0.1
2018-Jun-29 23:57N 22°37' E 120°17'0 0.0
2018-Jun-29 17:09N 22°37' E 120°17'0 0.0
2018-Jun-29 11:57N 22°37' E 120°17'0 0.1
2018-Jun-29 11:21N 22°37' E 120°17'0 0.0
2018-Jun-29 10:45N 22°37' E 120°17'0 0.2
2018-Jun-29 10:27N 22°37' E 120°17'0 0.0
2018-Jun-29 09:57N 22°37' E 120°17'0 0.0
2018-Jun-29 09:15N 22°37' E 120°17'0 0.0
2018-Jun-29 08:57N 22°37' E 120°17'0 0.0
2018-Jun-29 08:27N 22°37' E 120°17'0 0.0
2018-Jun-29 07:57N 22°37' E 120°17'0 0.0
2018-Jun-29 07:27N 22°37' E 120°17'0 0.0
2018-Jun-29 06:57N 22°37' E 120°17'0 0.1
2018-Jun-29 06:21N 22°37' E 120°17'0 0.1
2018-Jun-29 05:57N 22°37' E 120°17'0 0.0
2018-Jun-29 05:27N 22°37' E 120°17'0 0.1
2018-Jun-29 04:57N 22°37' E 120°17'0 0.1
2018-Jun-29 04:21N 22°37' E 120°17'0 0.0
2018-Jun-29 03:57N 22°37' E 120°17'0 0.1
2018-Jun-29 03:27N 22°37' E 120°17'0 0.1
2018-Jun-29 02:57N 22°37' E 120°17'0 0.1
2018-Jun-29 02:27N 22°37' E 120°17'0 0.0
2018-Jun-29 01:57N 22°37' E 120°17'0 0.1
2018-Jun-29 01:27N 22°37' E 120°17'0 0.0
2018-Jun-29 00:57N 22°37' E 120°17'0 0.1
2018-Jun-29 00:27N 22°37' E 120°17'0 0.0
2018-Jun-28 14:27N 22°37' E 120°17'0 0.0
2018-Jun-28 13:51N 22°37' E 120°17'0 0.0
2018-Jun-28 13:27N 22°37' E 120°17'0 0.0
2018-Jun-28 12:57N 22°37' E 120°17'0 0.0
2018-Jun-28 12:27N 22°37' E 120°17'0 0.1
2018-Jun-28 11:45N 22°37' E 120°17'0 0.2
2018-Jun-28 11:27N 22°37' E 120°17'0 0.0
2018-Jun-28 10:57N 22°37' E 120°17'0 0.0
2018-Jun-28 10:27N 22°37' E 120°17'0 0.0
2018-Jun-28 09:57N 22°37' E 120°17'0 0.0
2018-Jun-28 09:27N 22°37' E 120°17'0 0.0
2018-Jun-28 08:57N 22°37' E 120°17'0 0.1
2018-Jun-28 08:27N 22°37' E 120°17'0 0.1
2018-Jun-28 07:57N 22°37' E 120°17'0 0.0
2018-Jun-28 07:27N 22°37' E 120°17'0 0.0
2018-Jun-28 06:57N 22°37' E 120°17'0 0.0
2018-Jun-28 06:27N 22°37' E 120°17'0 0.0
2018-Jun-28 05:57N 22°37' E 120°17'0 0.0
2018-Jun-28 05:27N 22°37' E 120°17'0 0.0
2018-Jun-28 04:45N 22°37' E 120°17'0 0.0
2018-Jun-28 04:27N 22°37' E 120°17'0 0.0
2018-Jun-28 03:45N 22°37' E 120°17'0 0.0
2018-Jun-28 03:21N 22°37' E 120°17'0 0.0
2018-Jun-28 02:57N 22°37' E 120°17'0 0.0
2018-Jun-28 02:27N 22°37' E 120°17'0 0.0
2018-Jun-28 01:57N 22°37' E 120°17'0 0.1
2018-Jun-28 01:27N 22°37' E 120°17'0 0.0
2018-Jun-28 01:00N 22°37' E 120°17'1 1.9
2018-Jun-28 00:30N 22°36' E 120°17'3 5.1
2018-Jun-28 00:00N 22°34' E 120°19'1 1.4
2018-Jun-27 23:29N 22°34' E 120°20'0 0.0
2018-Jun-27 12:16N 22°34' E 120°20'0 0.0
2018-Jun-27 11:58N 22°34' E 120°20'0 0.0
2018-Jun-27 09:58N 22°34' E 120°20'0 0.0
2018-Jun-27 09:22N 22°34' E 120°20'0 0.0
2018-Jun-27 08:52N 22°34' E 120°20'0 0.0
2018-Jun-27 08:28N 22°34' E 120°20'0 0.0
2018-Jun-27 07:52N 22°34' E 120°20'0 0.0
2018-Jun-27 07:22N 22°34' E 120°20'0 0.0
2018-Jun-27 06:10N 22°34' E 120°20'0 0.0
2018-Jun-27 05:52N 22°34' E 120°20'0 0.0
2018-Jun-27 05:28N 22°34' E 120°20'0 0.0
2018-Jun-27 04:52N 22°34' E 120°20'0 0.0
2018-Jun-27 04:28N 22°34' E 120°20'0 0.0
2018-Jun-27 03:58N 22°34' E 120°20'0 0.0
2018-Jun-27 03:28N 22°34' E 120°20'  

Dump ship's entire track history